Ballston Spa, New York
Current Conditions -  °F | °C
As of 4:51 PM on Monday 24 Nov 2014 (Local Time) from KALB Reporting Station
Few Clouds Few Clouds  
Wind Chill: 66°   Ceiling: Unl
Heat Index: 66°   Visibility: 10mi
Dew Point: 56°   Wind: 10mph
Humidity: 70%   Direction: 170°S
Pressure: 29.49"   Gusts: NA
Location:  43°N, 73.85°W
Report Text: KALB 242151Z 17009KT 10SM FEW030 FEW060 19/13 A2949 RMK AO2 SLP985 T01890133
Loading
Personal Weather Stations






























Interactive Weather Map New forecast layout! Learn more

10-Day Weather Forecast

Advertisements
Track Severe Weather on mobile